• Join FlightAware (Why Join?)
  • Login
  • US Flag 
07:01AM EDT


 

Airport Tracker/Info


-or-


 

Live Flight TrackerFlight Track Log ✈ UAL4678 ✈ 14-May-2014 ✈ KMSP - KEWR

Flight Track Log - Related Links

Times and Time Zones

All times are in EDT time to prevent confusion due to time zone crossing. See the UAL4678 flight status page for this flight to view local times or setup timezone preferences in your user account.

Time Position Orientation Groundspeed Altitude Reporting Facility
EDT Latitude Longitude Course Direction KTS MPH feet Rate Location/Type
03:01PM 44.9000 -93.2833 115° Southeast 175 201 2,500  Level Minneapolis TRACON
03:02PM 44.8908 -93.2997 232° Southwest 198 228 3,100 2,220 Climbing Minneapolis Center
03:03PM 44.8544 -93.3725 235° Southwest 219 252 6,000 2,340 Climbing Minneapolis Center
03:04PM 44.8053 -93.3064 136° Southeast 246 283 8,000 2,040 Climbing Minneapolis Center
03:05PM 44.7553 -93.2133 127° Southeast 266 306 10,300 1,740 Climbing Minneapolis Center
03:06PM 44.3784 -92.5413 120° Southeast  Level FlightAware Approximate
03:06PM 44.7003 -93.1119 127° Southeast 292 336 11,600  Level Minneapolis Center
03:07PM 44.3222 -92.3998 115° Southeast  Level FlightAware Approximate
03:07PM 44.6386 -92.9969 127° Southeast 345 397 13,000  Level Minneapolis Center
03:08PM 44.5756 -92.8797 127° Southeast 370 426 14,800 1,560 Climbing Minneapolis Center
03:09PM 44.5122 -92.7628 127° Southeast 372 428 16,200 1,380 Climbing Minneapolis Center
03:10PM 44.4467 -92.6433 128° Southeast 381 438 17,700 1,320 Climbing Minneapolis Center
03:11PM 44.3817 -92.5244 127° Southeast 385 443 19,000 1,500 Climbing Minneapolis Center
03:12PM 44.3083 -92.3756 125° Southeast 386 444 20,800 1,500 Climbing Minneapolis Center
03:13PM 44.2531 -92.2450 121° Southeast 390 449 22,200 1,380 Climbing Minneapolis Center
03:14PM 44.1969 -92.1175 122° Southeast 389 448 23,700 1,440 Climbing Minneapolis Center
03:15PM 44.1428 -91.9897 121° Southeast 388 447 25,200 1,440 Climbing Minneapolis Center
03:16PM 44.0883 -91.8661 121° Southeast 381 438 26,700 1,380 Climbing Minneapolis Center
03:17PM 44.0358 -91.7472 122° Southeast 369 425 28,100 1,440 Climbing Minneapolis Center
03:18PM 43.9806 -91.6197 121° Southeast 359 413 29,700 1,500 Climbing Minneapolis Center
03:19PM 43.9314 -91.5108 122° Southeast 342 394 31,200 1,380 Climbing Minneapolis Center
03:20PM 43.8789 -91.4094 126° Southeast 332 382 32,600 1,320 Climbing Minneapolis Center
03:21PM 43.8244 -91.3228 131° Southeast 309 356 34,000 1,140 Climbing Minneapolis Center
03:22PM 43.7622 -91.2200 130° Southeast 298 343 35,000 480 Climbing Minneapolis Center
03:23PM 43.7083 -91.1317 130° Southeast 298 343 35,000  Level Minneapolis Center
03:24PM 43.6497 -91.0383 131° Southeast 304 350 35,000  Level Minneapolis Center
03:25PM 43.5878 -90.9381 130° Southeast 322 371 35,000  Level Minneapolis Center
03:26PM 43.5356 -90.8569 132° Southeast 354 407 35,000  Level Chicago Center
03:27PM 43.4700 -90.7489 130° Southeast 365 420 35,000  Level Chicago Center
03:28PM 43.4011 -90.6381 131° Southeast 368 423 35,000  Level Chicago Center
03:29PM 43.3214 -90.5111 131° Southeast 371 427 35,000  Level Chicago Center
03:30PM 43.2536 -90.4019 130° Southeast 373 429 35,000  Level Chicago Center
03:31PM 43.1853 -90.2936 131° Southeast 373 429 35,000  Level Chicago Center
03:32PM 43.1172 -90.1856 131° Southeast 373 429 35,000  Level Chicago Center
03:33PM 43.0486 -90.0769 131° Southeast 375 432 35,000  Level Chicago Center
03:34PM 42.9717 -89.9403 128° Southeast 377 434 35,000  Level Chicago Center
03:36PM 42.9086 -89.8164 125° Southeast 387 445 35,000 360 Level Chicago Center
03:37PM 42.8506 -89.6956 123° Southeast 386 444 35,800 720 Climbing Chicago Center
03:38PM 42.7936 -89.5789 124° Southeast 377 434 36,600 540 Climbing Chicago Center
03:39PM 42.7533 -89.4450 112° Southeast 397 457 37,000 180 Climbing Chicago Center
03:40PM 42.7217 -89.2597 103° East 417 480 37,000  Level Chicago Center
03:41PM 42.6947 -89.1019 103° East 424 488 37,000  Level Chicago Center
03:42PM 42.6672 -88.9408 103° East 434 499 37,000  Level Chicago Center
03:43PM 42.6378 -88.7775 104° East 441 507 37,000  Level Chicago Center
03:44PM 42.6089 -88.6142 103° East 443 510 37,000  Level Chicago Center
03:45PM 42.5744 -88.4169 103° East 448 516 37,000  Level Chicago Center
03:46PM 42.5458 -88.2539 103° East 448 516 37,000  Level Chicago Center
03:47PM 42.5169 -88.0944 104° East 444 511 37,000  Level Chicago Center
03:48PM 42.4872 -87.9347 104° East 443 510 37,000  Level Chicago Center
03:49PM 42.4569 -87.7742 104° East 442 509 37,000  Level Chicago Center
03:50PM 42.4228 -87.5944 104° East 442 509 37,000  Level Chicago Center
03:51PM 42.3922 -87.4306 104° East 444 511 37,000  Level Chicago Center
03:52PM 42.3611 -87.2686 105° East 444 511 37,000  Level Chicago Center
03:53PM 42.3300 -87.1053 104° East 446 513 37,000  Level Chicago Center
03:54PM 42.2908 -86.9067 105° East 453 521 37,000  Level Chicago Center
03:55PM 42.2578 -86.7447 105° East 451 519 37,000  Level Chicago Center
03:56PM 42.2292 -86.5942 104° East 448 516 37,000  Level Chicago Center
03:57PM 42.1972 -86.4300 105° East 450 518 37,000  Level Chicago Center
03:58PM 42.1569 -86.2344 105° East 452 520 37,000  Level Chicago Center
03:59PM 42.1239 -86.0711 105° East 452 520 37,000  Level Chicago Center
04:00PM 42.0928 -85.9194 105° East 453 521 37,000  Level Chicago Center
04:01PM 42.0589 -85.7558 106° East 457 526 37,000  Level Chicago Center
04:02PM 42.0186 -85.5611 105° East 456 525 37,000  Level Chicago Center
04:03PM 41.9894 -85.4122 105° East 455 524 37,000  Level Chicago Center
04:05PM 41.9553 -85.2472 106° East 455 524 37,000  Level Chicago Center
04:06PM 41.9514 -85.0325 91° East 475 547 37,000  Level Chicago Center
04:07PM 41.9500 -84.8533 91° East 482 555 37,000  Level Chicago Center
04:08PM 41.9492 -84.6761 90° East 478 550 37,000  Level Chicago Center
04:08PM 41.9467 -84.5350 91° East 474 545 37,000  Level Cleveland Center
04:09PM 41.9461 -84.3581 90° East 475 547 37,000  Level Cleveland Center
04:11PM 41.9447 -84.1800 91° East 474 545 37,000  Level Cleveland Center
04:12PM 41.9414 -84.0033 91° East 475 547 37,000  Level Cleveland Center
04:13PM 41.9386 -83.7928 91° East 475 547 37,000  Level Cleveland Center
04:14PM 41.9358 -83.6181 91° East 475 547 37,000  Level Cleveland Center
04:15PM 41.9336 -83.4514 91° East 474 545 37,000  Level Cleveland Center
04:16PM 41.9325 -83.2431 90° East 474 545 37,000  Level Cleveland Center
04:17PM 41.9319 -83.0600 90° East 474 545 37,000  Level Cleveland Center
04:18PM 41.9311 -82.8847 90° East 474 545 37,000  Level Cleveland Center
04:19PM 41.9286 -82.7097 91° East 474 545 37,000  Level Cleveland Center
04:20PM 41.9269 -82.5336 91° East 474 545 37,000  Level Cleveland Center
04:21PM 41.9261 -82.3583 90° East 473 544 37,000  Level Cleveland Center
04:22PM 41.9225 -82.1456 91° East 474 545 37,000  Level Cleveland Center
04:23PM 41.9192 -81.9619 91° East 474 545 37,000  Level Cleveland Center
04:24PM 41.9131 -81.7825 93° East 475 547 37,000  Level Cleveland Center
04:25PM 41.8975 -81.6047 97° East 475 547 37,000  Level Cleveland Center
04:26PM 41.8814 -81.4253 97° East 475 547 37,000  Level Cleveland Center
04:27PM 41.8647 -81.2461 97° East 476 548 37,000  Level Cleveland Center
04:28PM 41.8478 -81.0664 97° East 477 549 37,000  Level Cleveland Center
04:29PM 41.8317 -80.8894 97° East 476 548 37,000  Level Cleveland Center
04:30PM 41.8136 -80.7094 98° East 478 550 37,000  Level Cleveland Center
04:31PM 41.7967 -80.5300 97° East 480 552 37,000  Level Cleveland Center
04:32PM 41.7758 -80.3236 98° East 477 549 37,000  Level Cleveland Center
04:33PM 41.7583 -80.1458 97° East 476 548 37,000  Level Cleveland Center
04:34PM 41.7383 -79.9675 98° East 478 550 37,000  Level Cleveland Center
04:35PM 41.7206 -79.7900 98° East 478 550 37,000  Level Cleveland Center
04:36PM 41.7003 -79.6014 98° East 477 549 37,000  Level Cleveland Center
04:37PM 41.6814 -79.4269 98° East 476 548 37,000  Level Cleveland Center
04:38PM 41.6594 -79.2322 99° East 477 549 37,000  Level Cleveland Center
04:40PM 41.6431 -79.0794 98° East 476 548 37,000  Level Cleveland Center
04:41PM 41.6186 -78.8703 99° East 476 548 37,000  Level Cleveland Center
04:42PM 41.5997 -78.6983 98° East 475 547 37,000  Level Cleveland Center
04:43PM 41.5861 -78.5317 96° East 460 529 37,000  Level Cleveland Center
04:44PM 41.6347 -78.3792 67° East 455 524 37,000 -120 Level Cleveland Center
04:45PM 41.6981 -78.2386 59° Northeast 453 521 36,800 -600 Descending Cleveland Center
04:46PM 41.6694 -78.0797 104° East 452 520 35,800 -1,080 Descending Cleveland Center
04:47PM 41.6272 -77.8972 107° East 436 502 34,600 -1,020 Descending Cleveland Center
04:48PM 41.5881 -77.7431 109° East 434 499 33,700 -960 Descending Cleveland Center
04:49PM 41.5492 -77.5850 108° East 445 512 32,700 -1,020 Descending Cleveland Center
04:50PM 41.5081 -77.4314 110° East 445 512 31,700 -840 Descending Cleveland Center
04:51PM 41.4689 -77.2758 109° East 444 511 31,000 -360 Descending Cleveland Center
04:52PM 41.4217 -77.0956 109° East 443 510 31,000  Level New York Center
04:53PM 41.3800 -76.9394 110° East 443 510 31,000 -720 Level New York Center
04:54PM 41.3378 -76.7836 110° East 443 510 29,600 -2,040 Descending New York Center
04:55PM 41.2961 -76.6197 109° East 443 510 26,900 -2,700 Descending New York Center
04:56PM 41.2517 -76.4642 111° Southeast 448 516 24,200 -2,640 Descending New York Center
04:57PM 41.2089 -76.3117 110° East 448 516 21,700 -2,640 Descending New York Center
04:58PM 41.1683 -76.1483 108° East 430 495 18,900 -1,920 Descending New York Center
04:59PM 41.1344 -76.0244 110° East 401 461 18,000 -1,620 Descending New York Center
05:00PM 41.0986 -75.8894 109° East 389 448 15,800 -1,740 Descending New York Center
05:02PM 41.0225 -75.6169 110° East 377 434 12,900 -1,080 Descending New York Center
05:03PM 40.9917 -75.5075 110° East 372 428 12,700 -1,320 Descending New York Center
05:04PM 40.9533 -75.3703 110° East 367 422 10,300 -1,620 Descending New York Center
05:05PM 40.9278 -75.2725 109° East 331 381 9,500 -1,320 Descending New York Center
05:06PM 40.8983 -75.1717 111° Southeast 301 346 7,700 -1,320 Descending New York Center
05:07PM 40.8686 -75.0708 111° Southeast 277 319 7,000 -360 Descending New York Center
05:08PM 40.8594 -74.9853 98° East 249 287 7,000  Level New York Center
05:09PM 40.8894 -74.9019 65° Northeast 230 265 7,000  Level New York Center
05:10PM 40.9172 -74.8214 65° Northeast 237 273 7,000  Level New York Center
05:11PM 40.8786 -74.7944 152° Southeast 140 161 7,000 -240 Level New York Center
05:12PM 40.8214 -74.8158 196° South 177 204 6,600 -540 Descending New York Center
05:13PM 40.7719 -74.7992 166° South 193 222 6,000 -360 Descending New York Center
05:14PM 40.7386 -74.7422 128° Southeast 187 215 6,000  Level New York Center
05:15PM 40.7308 -74.6625 97° East 193 222 6,000  Level New York Center
05:16PM 40.7417 -74.5864 79° East 199 229 6,000  Level New York Center
05:17PM 40.8025 -74.5706 11° North 171 197 6,000  Level New York Center
05:18PM 40.8592 -74.5600 North 203 234 6,000  Level New York Center
05:19PM 40.9283 -74.5503 North 225 259 6,000  Level New York Center
05:21PM 41.0667 -74.5167 10° North 207 238 6,000  Level New York TRACON
05:22PM 41.1167 -74.4833 27° Northeast 211 243 6,000  Level New York TRACON
05:23PM 41.1500 -74.4167 56° Northeast 208 239 6,000 -360 Level New York TRACON
05:24PM 41.1500 -74.3500 90° East 198 228 5,300 -540 Descending New York TRACON
05:25PM 41.1333 -74.2833 108° East 191 220 5,000 -180 Descending New York TRACON
05:26PM 41.1000 -74.2333 131° Southeast 180 207 5,000  Level New York TRACON
05:27PM 41.0500 -74.2000 153° Southeast 173 199 5,000 -240 Level New York TRACON
05:28PM 41.0167 -74.1667 143° Southeast 181 208 4,600 -540 Descending New York TRACON
05:29PM 40.9833 -74.1333 143° Southeast 169 194 4,000 -600 Descending New York TRACON
05:30PM 40.9333 -74.1167 166° South 171 197 3,500 -540 Descending New York TRACON
05:31PM 40.9000 -74.0833 143° Southeast 166 191 3,000 -300 Descending New York TRACON
05:32PM 40.8500 -74.0667 166° South 164 189 3,000 -300 Level New York TRACON
05:33PM 40.8000 -74.1000 207° Southwest 163 188 2,400 -780 Descending New York TRACON
05:34PM 40.7667 -74.1167 201° Southwest 178 205 1,500 -900 Descending New York TRACON
05:35PM 40.7333 -74.1500 217° Southwest 140 161 700 -840 Descending New York TRACON